Portada
METAR-TAF:

METAR-TAF

Aeroports :

Decatur, Illinois, Estats Units d'Amèrica

latitud: 39-50-04N, longitud: 088-51-56W, altitud: 208 m

Observació

L'informe es va fer fa 49 minuts, a les 07:54 UTC
Vent 11 kt del Sud/Sud-Oest
Temperatura 20°C
Humitat 53%
Pressió 1017 hPa
Visibilitat: 16.1 km
Cel clar

METAR: KDEC 020754Z AUTO 21011KT 10SM CLR 20/10 A3003 RMK AO2 SLP165 T02000100

Hora: 03:43 (08:43 UTC)

Pronòstic

L'informe es va fer fa 3 hores i 23 minuts, a les 05:20 UTC
Pronòstic vàlid del 02 a les 06 UTC al 03 a les 06 UTC
Vent 9 kt del Sud/Sud-Oest
Visibilitat: 10 km
Escasses núvols a una alçada de 25000 ft
A partir de les 02 a les 1300 UTC
Vent 14 kt del Sud-Oest amb ràfegues de 21 kt
Visibilitat: 10 km
Núvols disperses a una alçada de 12000 ft
A partir de les 03 a les 0100 UTC
Vent 8 kt del Sud-Oest
Visibilitat: 10 km
Escasses núvols a una alçada de 25000 ft

TAF: KDEC 020520Z 0206/0306 20009KT P6SM FEW250 WS020/25040KT FM021300 22014G21KT P6SM SCT120 FM030100 22008KT P6SM FEW250

Observacions i pronòstics meteorològics de més de 4000 aeroports (METAR i TAF).

Les estacions disponibles són els punts grocs i vermells al mapa.

Posi el ratolí al punt desitjat per veure el nom de l'estació.

Feu clic per veure les observacions i els pronòstics meteorològics.

Per canviar el mapa: feu clic els botons verds amb una creu de color negre per apropar; al botó verd amb un guió per allunyar la imatge; o en les fletxes verdes per a mapes adjacents.


METAR-TAF: